sensor_id;sensor_type;location;lat;lon;timestamp;pressure;altitude;pressure_sealevel;temperature;humidity
62038;BME280;47991;42.974;12.082;2023-02-01T00:00:54;98484.89;;;0.24;63.90
62038;BME280;47991;42.974;12.082;2023-02-01T00:03:25;98489.86;;;0.15;63.75
62038;BME280;47991;42.974;12.082;2023-02-01T00:05:59;98487.17;;;0.11;63.74
62038;BME280;47991;42.974;12.082;2023-02-01T00:08:26;98483.78;;;0.15;63.21
62038;BME280;47991;42.974;12.082;2023-02-01T00:11:04;98481.16;;;0.14;63.81
62038;BME280;47991;42.974;12.082;2023-02-01T00:13:33;98491.61;;;0.08;63.96
62038;BME280;47991;42.974;12.082;2023-02-01T00:18:30;98505.59;;;0.11;64.08
62038;BME280;47991;42.974;12.082;2023-02-01T00:20:57;98505.98;;;0.19;64.10
62038;BME280;47991;42.974;12.082;2023-02-01T00:23:24;98507.21;;;0.27;63.82
62038;BME280;47991;42.974;12.082;2023-02-01T00:25:50;98508.73;;;0.26;64.00
62038;BME280;47991;42.974;12.082;2023-02-01T00:28:17;98514.55;;;0.22;64.06
62038;BME280;47991;42.974;12.082;2023-02-01T00:30:43;98511.38;;;0.20;64.17
62038;BME280;47991;42.974;12.082;2023-02-01T00:33:10;98510.31;;;0.18;64.25
62038;BME280;47991;42.974;12.082;2023-02-01T00:35:37;98507.21;;;0.13;65.30
62038;BME280;47991;42.974;12.082;2023-02-01T00:38:03;98506.07;;;0.09;64.97
62038;BME280;47991;42.974;12.082;2023-02-01T00:40:30;98513.36;;;0.08;65.16
62038;BME280;47991;42.974;12.082;2023-02-01T00:42:57;98516.55;;;0.11;65.16
62038;BME280;47991;42.974;12.082;2023-02-01T00:45:23;98511.67;;;0.18;65.01
62038;BME280;47991;42.974;12.082;2023-02-01T00:47:50;98502.14;;;0.26;64.37
62038;BME280;47991;42.974;12.082;2023-02-01T00:50:17;98506.89;;;0.28;65.01
62038;BME280;47991;42.974;12.082;2023-02-01T00:52:44;98508.56;;;0.25;64.99
62038;BME280;47991;42.974;12.082;2023-02-01T00:55:10;98518.70;;;0.21;65.49
62038;BME280;47991;42.974;12.082;2023-02-01T00:57:36;98511.16;;;0.17;65.42
62038;BME280;47991;42.974;12.082;2023-02-01T01:00:03;98511.96;;;0.23;65.36
62038;BME280;47991;42.974;12.082;2023-02-01T01:02:31;98513.56;;;0.23;67.62
62038;BME280;47991;42.974;12.082;2023-02-01T01:04:57;98514.85;;;0.19;65.96
62038;BME280;47991;42.974;12.082;2023-02-01T01:07:24;98515.45;;;0.23;65.17
62038;BME280;47991;42.974;12.082;2023-02-01T01:09:50;98507.16;;;0.25;65.08
62038;BME280;47991;42.974;12.082;2023-02-01T01:12:17;98505.64;;;0.27;65.29
62038;BME280;47991;42.974;12.082;2023-02-01T01:14:46;98500.45;;;0.28;65.42
62038;BME280;47991;42.974;12.082;2023-02-01T01:17:12;98493.16;;;0.29;64.95
62038;BME280;47991;42.974;12.082;2023-02-01T01:19:39;98488.43;;;0.27;65.69
62038;BME280;47991;42.974;12.082;2023-02-01T01:22:05;98488.20;;;0.25;65.22
62038;BME280;47991;42.974;12.082;2023-02-01T01:24:32;98488.39;;;0.25;65.36
62038;BME280;47991;42.974;12.082;2023-02-01T01:26:59;98484.04;;;0.25;65.37
62038;BME280;47991;42.974;12.082;2023-02-01T01:29:25;98481.20;;;0.30;65.55
62038;BME280;47991;42.974;12.082;2023-02-01T01:31:52;98477.86;;;0.29;66.72
62038;BME280;47991;42.974;12.082;2023-02-01T01:34:19;98481.04;;;0.31;66.19
62038;BME280;47991;42.974;12.082;2023-02-01T01:36:45;98475.33;;;0.40;65.96
62038;BME280;47991;42.974;12.082;2023-02-01T01:39:12;98466.34;;;0.42;65.81
62038;BME280;47991;42.974;12.082;2023-02-01T01:41:38;98467.00;;;0.41;65.69
62038;BME280;47991;42.974;12.082;2023-02-01T01:47:18;98474.52;;;0.42;66.31
62038;BME280;47991;42.974;12.082;2023-02-01T01:49:45;98469.65;;;0.43;65.84
62038;BME280;47991;42.974;12.082;2023-02-01T01:52:12;98463.44;;;0.45;65.34
62038;BME280;47991;42.974;12.082;2023-02-01T01:54:43;98468.33;;;0.45;66.08
62038;BME280;47991;42.974;12.082;2023-02-01T01:57:15;98473.94;;;0.48;66.12
62038;BME280;47991;42.974;12.082;2023-02-01T01:59:47;98471.14;;;0.55;65.51
62038;BME280;47991;42.974;12.082;2023-02-01T02:02:15;98469.88;;;0.60;65.51
62038;BME280;47991;42.974;12.082;2023-02-01T02:04:42;98461.11;;;0.65;64.79
62038;BME280;47991;42.974;12.082;2023-02-01T02:07:11;98456.90;;;0.63;65.59
62038;BME280;47991;42.974;12.082;2023-02-01T02:09:40;98450.71;;;0.59;65.43
62038;BME280;47991;42.974;12.082;2023-02-01T02:12:09;98449.29;;;0.58;66.18
62038;BME280;47991;42.974;12.082;2023-02-01T02:14:36;98448.13;;;0.59;65.65
62038;BME280;47991;42.974;12.082;2023-02-01T02:26:34;98437.54;;;0.85;65.48
62038;BME280;47991;42.974;12.082;2023-02-01T02:34:32;98429.95;;;0.81;65.38
62038;BME280;47991;42.974;12.082;2023-02-01T02:37:23;98421.41;;;0.80;66.22
62038;BME280;47991;42.974;12.082;2023-02-01T02:40:02;98412.52;;;0.80;66.37
62038;BME280;47991;42.974;12.082;2023-02-01T02:48:34;98409.02;;;0.78;66.04
62038;BME280;47991;42.974;12.082;2023-02-01T02:51:20;98411.83;;;0.80;65.94
62038;BME280;47991;42.974;12.082;2023-02-01T02:54:18;98417.15;;;0.84;66.04
62038;BME280;47991;42.974;12.082;2023-02-01T02:57:08;98419.19;;;0.90;66.17
62038;BME280;47991;42.974;12.082;2023-02-01T02:59:57;98422.25;;;0.96;66.34
62038;BME280;47991;42.974;12.082;2023-02-01T03:02:46;98424.27;;;1.01;66.23
62038;BME280;47991;42.974;12.082;2023-02-01T03:05:36;98426.13;;;1.06;66.78
62038;BME280;47991;42.974;12.082;2023-02-01T03:10:46;98431.20;;;1.07;67.17
62038;BME280;47991;42.974;12.082;2023-02-01T03:13:20;98432.97;;;0.92;68.49
62038;BME280;47991;42.974;12.082;2023-02-01T03:16:01;98436.09;;;0.67;69.31
62038;BME280;47991;42.974;12.082;2023-02-01T03:18:35;98436.52;;;0.63;68.54
62038;BME280;47991;42.974;12.082;2023-02-01T03:21:08;98442.20;;;0.67;67.79
62038;BME280;47991;42.974;12.082;2023-02-01T03:23:37;98445.85;;;0.67;68.06
62038;BME280;47991;42.974;12.082;2023-02-01T03:26:08;98451.66;;;0.70;68.34
62038;BME280;47991;42.974;12.082;2023-02-01T03:28:39;98449.92;;;0.71;68.47
62038;BME280;47991;42.974;12.082;2023-02-01T03:31:08;98444.14;;;0.77;67.93
62038;BME280;47991;42.974;12.082;2023-02-01T03:33:38;98444.41;;;0.81;67.54
62038;BME280;47991;42.974;12.082;2023-02-01T03:36:25;98441.36;;;0.85;67.59
62038;BME280;47991;42.974;12.082;2023-02-01T03:41:37;98450.20;;;0.92;68.75
62038;BME280;47991;42.974;12.082;2023-02-01T03:44:24;98454.31;;;0.88;70.05
62038;BME280;47991;42.974;12.082;2023-02-01T03:47:22;98460.83;;;0.76;70.21
62038;BME280;47991;42.974;12.082;2023-02-01T03:50:15;98457.63;;;0.72;68.76
62038;BME280;47991;42.974;12.082;2023-02-01T03:52:48;98462.45;;;0.79;67.76
62038;BME280;47991;42.974;12.082;2023-02-01T03:55:20;98466.13;;;0.79;67.89
62038;BME280;47991;42.974;12.082;2023-02-01T04:00:28;98462.68;;;0.89;68.02
62038;BME280;47991;42.974;12.082;2023-02-01T04:02:56;98460.90;;;0.96;67.80
62038;BME280;47991;42.974;12.082;2023-02-01T04:05:23;98459.24;;;0.99;67.65
62038;BME280;47991;42.974;12.082;2023-02-01T04:08:01;98462.95;;;1.02;67.89
62038;BME280;47991;42.974;12.082;2023-02-01T04:10:28;98462.68;;;0.97;68.11
62038;BME280;47991;42.974;12.082;2023-02-01T04:12:55;98462.13;;;0.88;68.16
62038;BME280;47991;42.974;12.082;2023-02-01T04:15:21;98466.48;;;0.87;68.00
62038;BME280;47991;42.974;12.082;2023-02-01T04:17:48;98465.59;;;0.87;67.94
62038;BME280;47991;42.974;12.082;2023-02-01T04:20:15;98467.60;;;0.83;68.07
62038;BME280;47991;42.974;12.082;2023-02-01T04:22:41;98464.65;;;0.75;67.93
62038;BME280;47991;42.974;12.082;2023-02-01T04:25:08;98467.74;;;0.73;67.91
62038;BME280;47991;42.974;12.082;2023-02-01T04:27:35;98467.67;;;0.70;67.91
62038;BME280;47991;42.974;12.082;2023-02-01T04:30:03;98468.42;;;0.73;67.80
62038;BME280;47991;42.974;12.082;2023-02-01T04:32:31;98472.21;;;0.71;68.25
62038;BME280;47991;42.974;12.082;2023-02-01T04:34:58;98474.98;;;0.55;68.69
62038;BME280;47991;42.974;12.082;2023-02-01T04:37:24;98481.64;;;0.49;68.60
62038;BME280;47991;42.974;12.082;2023-02-01T04:39:51;98479.62;;;0.44;68.76
62038;BME280;47991;42.974;12.082;2023-02-01T04:42:17;98486.96;;;0.39;68.68
62038;BME280;47991;42.974;12.082;2023-02-01T04:44:44;98487.55;;;0.34;69.31
62038;BME280;47991;42.974;12.082;2023-02-01T04:47:10;98485.98;;;0.27;69.40
62038;BME280;47991;42.974;12.082;2023-02-01T04:49:37;98489.40;;;0.24;69.48
62038;BME280;47991;42.974;12.082;2023-02-01T04:52:03;98486.85;;;0.19;69.34
62038;BME280;47991;42.974;12.082;2023-02-01T04:54:30;98492.97;;;0.13;69.89
62038;BME280;47991;42.974;12.082;2023-02-01T04:56:57;98495.55;;;0.12;69.76
62038;BME280;47991;42.974;12.082;2023-02-01T04:59:23;98493.67;;;0.14;70.57
62038;BME280;47991;42.974;12.082;2023-02-01T05:01:50;98494.41;;;0.16;70.10
62038;BME280;47991;42.974;12.082;2023-02-01T05:04:17;98500.15;;;0.23;69.59
62038;BME280;47991;42.974;12.082;2023-02-01T05:06:46;98505.49;;;0.28;69.78
62038;BME280;47991;42.974;12.082;2023-02-01T05:09:12;98504.09;;;0.27;69.65
62038;BME280;47991;42.974;12.082;2023-02-01T05:11:39;98495.66;;;0.24;70.17
62038;BME280;47991;42.974;12.082;2023-02-01T05:14:24;98496.92;;;0.19;69.94
62038;BME280;47991;42.974;12.082;2023-02-01T05:16:51;98501.86;;;0.08;69.35
62038;BME280;47991;42.974;12.082;2023-02-01T05:19:18;98507.00;;;-0.02;69.53
62038;BME280;47991;42.974;12.082;2023-02-01T05:21:44;98503.58;;;-0.07;69.56
62038;BME280;47991;42.974;12.082;2023-02-01T05:24:11;98506.12;;;-0.10;69.66
62038;BME280;47991;42.974;12.082;2023-02-01T05:26:46;98506.44;;;-0.18;69.36
62038;BME280;47991;42.974;12.082;2023-02-01T05:29:15;98510.02;;;-0.27;69.91
62038;BME280;47991;42.974;12.082;2023-02-01T05:31:44;98508.92;;;-0.29;69.87
62038;BME280;47991;42.974;12.082;2023-02-01T05:34:11;98509.30;;;-0.34;70.33
62038;BME280;47991;42.974;12.082;2023-02-01T05:36:38;98510.01;;;-0.41;70.29
62038;BME280;47991;42.974;12.082;2023-02-01T05:39:05;98510.46;;;-0.43;69.89
62038;BME280;47991;42.974;12.082;2023-02-01T05:41:31;98510.95;;;-0.45;70.06
62038;BME280;47991;42.974;12.082;2023-02-01T05:43:58;98509.73;;;-0.45;70.05
62038;BME280;47991;42.974;12.082;2023-02-01T05:46:25;98507.04;;;-0.47;70.42
62038;BME280;47991;42.974;12.082;2023-02-01T05:48:51;98504.05;;;-0.55;70.73
62038;BME280;47991;42.974;12.082;2023-02-01T05:51:18;98497.96;;;-0.62;71.05
62038;BME280;47991;42.974;12.082;2023-02-01T05:53:44;98498.11;;;-0.62;71.10
62038;BME280;47991;42.974;12.082;2023-02-01T05:56:11;98497.86;;;-0.60;71.06
62038;BME280;47991;42.974;12.082;2023-02-01T05:58:37;98495.93;;;-0.60;71.41
62038;BME280;47991;42.974;12.082;2023-02-01T06:01:04;98491.79;;;-0.59;71.67
62038;BME280;47991;42.974;12.082;2023-02-01T06:03:31;98494.52;;;-0.54;71.54
62038;BME280;47991;42.974;12.082;2023-02-01T06:05:59;98499.23;;;-0.47;71.57
62038;BME280;47991;42.974;12.082;2023-02-01T06:08:28;98498.37;;;-0.41;71.31
62038;BME280;47991;42.974;12.082;2023-02-01T06:11:03;98503.48;;;-0.31;71.91
62038;BME280;47991;42.974;12.082;2023-02-01T06:13:30;98502.90;;;-0.40;73.06
62038;BME280;47991;42.974;12.082;2023-02-01T06:15:57;98505.04;;;-0.38;71.57
62038;BME280;47991;42.974;12.082;2023-02-01T06:18:24;98506.48;;;-0.42;71.40
62038;BME280;47991;42.974;12.082;2023-02-01T06:20:57;98502.83;;;-0.43;71.82
62038;BME280;47991;42.974;12.082;2023-02-01T06:23:27;98505.69;;;-0.46;71.82
62038;BME280;47991;42.974;12.082;2023-02-01T06:26:03;98503.08;;;-0.46;72.19
62038;BME280;47991;42.974;12.082;2023-02-01T06:28:31;98501.14;;;-0.47;71.82
62038;BME280;47991;42.974;12.082;2023-02-01T06:30:57;98503.95;;;-0.45;71.89
62038;BME280;47991;42.974;12.082;2023-02-01T06:33:25;98502.42;;;-0.38;71.56
62038;BME280;47991;42.974;12.082;2023-02-01T06:35:58;98504.52;;;-0.31;71.89
62038;BME280;47991;42.974;12.082;2023-02-01T06:38:26;98506.92;;;-0.25;72.95
62038;BME280;47991;42.974;12.082;2023-02-01T06:40:54;98509.59;;;-0.17;72.19
62038;BME280;47991;42.974;12.082;2023-02-01T06:43:23;98513.20;;;-0.05;71.83
62038;BME280;47991;42.974;12.082;2023-02-01T06:45:51;98513.23;;;0.11;71.75
62038;BME280;47991;42.974;12.082;2023-02-01T06:48:18;98516.83;;;0.15;71.92
62038;BME280;47991;42.974;12.082;2023-02-01T06:50:45;98522.12;;;0.12;73.43
62038;BME280;47991;42.974;12.082;2023-02-01T06:53:11;98516.08;;;-0.01;74.18
62038;BME280;47991;42.974;12.082;2023-02-01T06:55:38;98514.42;;;0.03;73.34
62038;BME280;47991;42.974;12.082;2023-02-01T06:58:05;98519.90;;;0.06;73.75
62038;BME280;47991;42.974;12.082;2023-02-01T07:00:31;98521.02;;;0.08;72.96
62038;BME280;47991;42.974;12.082;2023-02-01T07:02:58;98519.13;;;0.17;73.06
62038;BME280;47991;42.974;12.082;2023-02-01T07:05:26;98522.55;;;0.29;72.88
62038;BME280;47991;42.974;12.082;2023-02-01T07:07:53;98519.05;;;0.50;72.53
62038;BME280;47991;42.974;12.082;2023-02-01T07:10:20;98521.26;;;0.93;72.84
62038;BME280;47991;42.974;12.082;2023-02-01T07:12:47;98516.57;;;1.09;71.65
62038;BME280;47991;42.974;12.082;2023-02-01T07:15:13;98519.45;;;1.23;71.30
62038;BME280;47991;42.974;12.082;2023-02-01T07:17:40;98521.58;;;1.60;71.18
62038;BME280;47991;42.974;12.082;2023-02-01T07:20:07;98522.71;;;1.83;70.91
62038;BME280;47991;42.974;12.082;2023-02-01T07:22:33;98523.66;;;1.87;71.60
62038;BME280;47991;42.974;12.082;2023-02-01T07:25:00;98520.84;;;1.95;71.52
62038;BME280;47991;42.974;12.082;2023-02-01T07:27:26;98517.42;;;2.08;71.03
62038;BME280;47991;42.974;12.082;2023-02-01T07:29:53;98524.63;;;2.12;71.57
62038;BME280;47991;42.974;12.082;2023-02-01T07:32:21;98521.77;;;2.17;71.39
62038;BME280;47991;42.974;12.082;2023-02-01T07:34:48;98523.19;;;2.30;71.32
62038;BME280;47991;42.974;12.082;2023-02-01T07:37:15;98517.11;;;2.42;71.12
62038;BME280;47991;42.974;12.082;2023-02-01T07:39:41;98523.91;;;2.42;70.17
62038;BME280;47991;42.974;12.082;2023-02-01T07:42:08;98520.20;;;2.19;69.27
62038;BME280;47991;42.974;12.082;2023-02-01T07:44:34;98524.70;;;2.07;69.67
62038;BME280;47991;42.974;12.082;2023-02-01T07:47:01;98527.05;;;2.01;70.12
62038;BME280;47991;42.974;12.082;2023-02-01T07:49:27;98525.63;;;1.90;70.57
62038;BME280;47991;42.974;12.082;2023-02-01T07:51:54;98529.27;;;1.89;70.29
62038;BME280;47991;42.974;12.082;2023-02-01T07:54:20;98533.14;;;2.00;70.37
62038;BME280;47991;42.974;12.082;2023-02-01T07:56:47;98533.38;;;2.14;70.34
62038;BME280;47991;42.974;12.082;2023-02-01T07:59:13;98528.38;;;2.28;70.12
62038;BME280;47991;42.974;12.082;2023-02-01T08:01:41;98526.16;;;2.41;70.41
62038;BME280;47991;42.974;12.082;2023-02-01T08:04:10;98527.64;;;2.46;70.16
62038;BME280;47991;42.974;12.082;2023-02-01T08:06:37;98526.23;;;2.46;70.29
62038;BME280;47991;42.974;12.082;2023-02-01T08:09:06;98523.24;;;2.44;70.25
62038;BME280;47991;42.974;12.082;2023-02-01T08:11:34;98521.69;;;2.45;69.79
62038;BME280;47991;42.974;12.082;2023-02-01T08:14:04;98524.30;;;2.55;69.69
62038;BME280;47991;42.974;12.082;2023-02-01T08:16:32;98523.89;;;2.63;69.62
62038;BME280;47991;42.974;12.082;2023-02-01T08:19:01;98526.33;;;2.64;69.20
62038;BME280;47991;42.974;12.082;2023-02-01T08:21:28;98525.77;;;2.72;68.88
62038;BME280;47991;42.974;12.082;2023-02-01T08:24:04;98527.03;;;2.75;68.56
62038;BME280;47991;42.974;12.082;2023-02-01T08:26:31;98525.16;;;2.78;68.40
62038;BME280;47991;42.974;12.082;2023-02-01T08:29:01;98529.72;;;2.79;69.06
62038;BME280;47991;42.974;12.082;2023-02-01T08:31:29;98533.16;;;2.87;67.97
62038;BME280;47991;42.974;12.082;2023-02-01T08:33:58;98531.48;;;2.81;68.16
62038;BME280;47991;42.974;12.082;2023-02-01T08:36:26;98534.37;;;2.87;68.46
62038;BME280;47991;42.974;12.082;2023-02-01T08:38:54;98531.02;;;2.97;68.33
62038;BME280;47991;42.974;12.082;2023-02-01T08:41:23;98534.41;;;3.02;67.83
62038;BME280;47991;42.974;12.082;2023-02-01T08:43:50;98536.09;;;2.97;67.92
62038;BME280;47991;42.974;12.082;2023-02-01T08:46:17;98535.46;;;2.79;67.97
62038;BME280;47991;42.974;12.082;2023-02-01T08:48:45;98536.36;;;2.68;68.77
62038;BME280;47991;42.974;12.082;2023-02-01T08:51:13;98540.11;;;2.63;68.83
62038;BME280;47991;42.974;12.082;2023-02-01T08:53:41;98545.23;;;2.66;68.80
62038;BME280;47991;42.974;12.082;2023-02-01T08:56:10;98546.63;;;2.78;68.80
62038;BME280;47991;42.974;12.082;2023-02-01T08:58:37;98538.39;;;2.87;68.60
62038;BME280;47991;42.974;12.082;2023-02-01T09:01:09;98540.02;;;2.79;67.65
62038;BME280;47991;42.974;12.082;2023-02-01T09:03:36;98536.23;;;2.71;68.21
62038;BME280;47991;42.974;12.082;2023-02-01T09:06:07;98531.45;;;2.77;68.55
62038;BME280;47991;42.974;12.082;2023-02-01T09:08:34;98533.52;;;2.88;68.12
62038;BME280;47991;42.974;12.082;2023-02-01T09:11:10;98538.68;;;2.95;68.31
62038;BME280;47991;42.974;12.082;2023-02-01T09:13:37;98538.89;;;3.10;67.83
62038;BME280;47991;42.974;12.082;2023-02-01T09:16:04;98535.77;;;3.26;66.71
62038;BME280;47991;42.974;12.082;2023-02-01T09:18:31;98535.44;;;3.27;66.02
62038;BME280;47991;42.974;12.082;2023-02-01T09:20:57;98539.67;;;3.29;65.93
62038;BME280;47991;42.974;12.082;2023-02-01T09:23:24;98541.54;;;3.38;66.11
62038;BME280;47991;42.974;12.082;2023-02-01T09:25:51;98537.87;;;3.39;66.12
62038;BME280;47991;42.974;12.082;2023-02-01T09:28:18;98541.33;;;3.49;66.20
62038;BME280;47991;42.974;12.082;2023-02-01T09:30:45;98544.95;;;3.62;66.43
62038;BME280;47991;42.974;12.082;2023-02-01T09:33:12;98544.95;;;3.75;66.47
62038;BME280;47991;42.974;12.082;2023-02-01T09:35:38;98541.59;;;3.72;65.59
62038;BME280;47991;42.974;12.082;2023-02-01T09:38:05;98543.13;;;3.85;66.24
62038;BME280;47991;42.974;12.082;2023-02-01T09:40:33;98549.42;;;4.00;64.91
62038;BME280;47991;42.974;12.082;2023-02-01T09:43:12;98552.84;;;4.10;64.57
62038;BME280;47991;42.974;12.082;2023-02-01T09:48:32;98539.86;;;5.70;62.89
62038;BME280;47991;42.974;12.082;2023-02-01T09:51:02;98531.82;;;6.81;58.56
62038;BME280;47991;42.974;12.082;2023-02-01T09:53:37;98527.91;;;6.98;57.43
62038;BME280;47991;42.974;12.082;2023-02-01T09:56:11;98527.70;;;8.02;57.07
62038;BME280;47991;42.974;12.082;2023-02-01T09:58:49;98521.80;;;8.13;55.44
62038;BME280;47991;42.974;12.082;2023-02-01T10:01:21;98520.73;;;7.52;56.22
62038;BME280;47991;42.974;12.082;2023-02-01T10:03:52;98523.60;;;7.39;56.21
62038;BME280;47991;42.974;12.082;2023-02-01T10:06:36;98518.81;;;7.87;55.58
62038;BME280;47991;42.974;12.082;2023-02-01T10:09:24;98513.48;;;8.22;55.66
62038;BME280;47991;42.974;12.082;2023-02-01T10:40:43;98451.13;;;15.53;37.69
62038;BME280;47991;42.974;12.082;2023-02-01T10:56:23;98436.73;;;10.76;48.64
62038;BME280;47991;42.974;12.082;2023-02-01T11:20:50;98402.16;;;11.75;48.97
62038;BME280;47991;42.974;12.082;2023-02-01T11:32:00;98390.91;;;12.10;49.12
62038;BME280;47991;42.974;12.082;2023-02-01T12:38:49;98290.81;;;11.87;51.61
62038;BME280;47991;42.974;12.082;2023-02-01T12:43:12;98283.84;;;12.10;51.09
62038;BME280;47991;42.974;12.082;2023-02-01T12:59:01;98278.96;;;11.86;52.03
62038;BME280;47991;42.974;12.082;2023-02-01T13:02:42;98266.18;;;11.79;51.83
62038;BME280;47991;42.974;12.082;2023-02-01T13:15:30;98258.36;;;11.45;52.97
62038;BME280;47991;42.974;12.082;2023-02-01T13:44:56;98263.80;;;12.82;50.55
62038;BME280;47991;42.974;12.082;2023-02-01T13:49:18;98261.56;;;12.90;49.80
62038;BME280;47991;42.974;12.082;2023-02-01T13:53:48;98266.94;;;12.58;48.87
62038;BME280;47991;42.974;12.082;2023-02-01T14:04:50;98269.90;;;11.79;49.73
62038;BME280;47991;42.974;12.082;2023-02-01T14:24:53;98279.84;;;11.65;51.19
62038;BME280;47991;42.974;12.082;2023-02-01T14:36:04;98281.42;;;11.35;51.79
62038;BME280;47991;42.974;12.082;2023-02-01T14:40:27;98281.52;;;11.22;51.87
62038;BME280;47991;42.974;12.082;2023-02-01T14:51:31;98283.39;;;11.18;51.88
62038;BME280;47991;42.974;12.082;2023-02-01T15:07:07;98283.39;;;10.95;51.76
62038;BME280;47991;42.974;12.082;2023-02-01T15:22:54;98272.77;;;10.78;52.23
62038;BME280;47991;42.974;12.082;2023-02-01T15:42:59;98298.19;;;10.24;54.03
62038;BME280;47991;42.974;12.082;2023-02-01T15:54:19;98326.77;;;10.18;54.25
62038;BME280;47991;42.974;12.082;2023-02-01T15:58:41;98324.41;;;10.11;55.16
62038;BME280;47991;42.974;12.082;2023-02-01T16:14:21;98344.58;;;9.88;56.79
62038;BME280;47991;42.974;12.082;2023-02-01T16:25:31;98341.13;;;9.82;56.58
62038;BME280;47991;42.974;12.082;2023-02-01T16:45:48;98328.85;;;9.55;57.72
62038;BME280;47991;42.974;12.082;2023-02-01T16:56:57;98326.95;;;9.27;59.97
62038;BME280;47991;42.974;12.082;2023-02-01T17:12:36;98334.05;;;8.70;60.06
62038;BME280;47991;42.974;12.082;2023-02-01T17:23:39;98344.64;;;8.32;61.21
62038;BME280;47991;42.974;12.082;2023-02-01T17:34:56;98354.16;;;7.93;63.84
62038;BME280;47991;42.974;12.082;2023-02-01T17:50:37;98348.26;;;7.60;63.69
62038;BME280;47991;42.974;12.082;2023-02-01T18:06:20;98352.70;;;7.25;65.26
62038;BME280;47991;42.974;12.082;2023-02-01T18:22:01;98362.08;;;7.14;65.86
62038;BME280;47991;42.974;12.082;2023-02-01T18:33:12;98347.36;;;7.03;66.70
62038;BME280;47991;42.974;12.082;2023-02-01T18:44:22;98352.48;;;6.97;67.61
62038;BME280;47991;42.974;12.082;2023-02-01T19:04:11;98360.46;;;6.81;68.35
62038;BME280;47991;42.974;12.082;2023-02-01T23:39:22;98396.38;;;2.71;74.27
62038;BME280;47991;42.974;12.082;2023-02-01T23:41:49;98394.23;;;2.66;74.02
62038;BME280;47991;42.974;12.082;2023-02-01T23:44:15;98398.80;;;2.70;73.74
62038;BME280;47991;42.974;12.082;2023-02-01T23:46:42;98397.45;;;2.72;74.46
62038;BME280;47991;42.974;12.082;2023-02-01T23:49:13;98395.91;;;2.75;74.17
62038;BME280;47991;42.974;12.082;2023-02-01T23:51:41;98387.45;;;2.69;74.53
62038;BME280;47991;42.974;12.082;2023-02-01T23:54:10;98381.08;;;2.61;74.21
62038;BME280;47991;42.974;12.082;2023-02-01T23:56:39;98380.11;;;2.55;74.90
62038;BME280;47991;42.974;12.082;2023-02-01T23:59:11;98378.61;;;2.47;74.99
